Time;durP1;ratioP1;P1;durP2;ratioP2;P2;SDS_P1;SDS_P2;PMS_P1;PMS_P2;Temp;Humidity;BMP_temperature;BMP_pressure;BME280_temperature;BME280_humidity;BME280_pressure;Samples;Min_cycle;Max_cycle;Signal;HPM_P1;HPM_P2
2021/12/28 00:00:44;;;;;;;24.13;15.90;;;3.90;99.90;;;;;;5083284;28;20114;-69
2021/12/28 00:03:10;;;;;;;22.75;15.70;;;3.90;99.90;;;;;;5084834;28;20084;-69
2021/12/28 00:05:35;;;;;;;23.33;16.27;;;3.90;99.90;;;;;;5069324;28;20048;-69
2021/12/28 00:08:02;;;;;;;25.42;16.10;;;4.00;99.90;;;;;;5083080;28;20078;-70
2021/12/28 00:10:27;;;;;;;24.75;17.25;;;4.00;99.90;;;;;;5105367;28;20042;-69
2021/12/28 00:12:54;;;;;;;22.75;15.95;;;4.00;99.90;;;;;;5071507;28;20032;-69
2021/12/28 00:18:04;;;;;;;;;;;4.10;99.90;;;;;;5085037;28;20036;-69
2021/12/28 00:20:38;;;;;;;24.00;15.25;;;4.10;99.90;;;;;;5103566;28;19938;-69
2021/12/28 00:23:07;;;;;;;27.35;17.38;;;4.10;99.90;;;;;;5083632;28;20039;-69
2021/12/28 00:25:33;;;;;;;25.42;16.92;;;4.50;99.90;;;;;;5087428;28;20044;-69
2021/12/28 00:27:58;;;;;;;25.33;17.02;;;4.20;99.90;;;;;;5082255;28;20028;-69
2021/12/28 00:30:24;;;;;;;30.17;18.52;;;4.20;99.90;;;;;;5071338;28;20051;-69
2021/12/28 00:32:56;;;;;;;29.58;19.55;;;4.20;99.90;;;;;;5092482;28;20514;-69
2021/12/28 00:35:24;;;;;;;29.13;18.75;;;4.20;99.90;;;;;;5084807;28;20372;-69
2021/12/28 00:37:50;;;;;;;31.33;20.08;;;4.20;99.90;;;;;;5086086;28;20039;-69
2021/12/28 00:40:16;;;;;;;32.72;20.27;;;4.30;99.90;;;;;;5089595;28;20032;-69
2021/12/28 00:42:42;;;;;;;32.28;20.58;;;4.30;99.90;;;;;;5109895;28;20054;-69
2021/12/28 00:45:10;;;;;;;39.25;22.80;;;4.30;99.90;;;;;;5091286;28;20044;-70
2021/12/28 00:47:36;;;;;;;36.50;22.10;;;4.30;99.90;;;;;;5082192;28;20075;-70
2021/12/28 00:50:02;;;;;;;39.03;23.27;;;4.30;99.90;;;;;;5070882;28;20132;-70
2021/12/28 00:52:28;;;;;;;36.88;21.70;;;4.30;99.90;;;;;;5086909;28;20566;-70
2021/12/28 00:54:54;;;;;;;37.97;22.67;;;4.70;99.90;;;;;;5088079;28;20158;-70
2021/12/28 00:57:20;;;;;;;39.72;23.27;;;4.30;99.90;;;;;;5075108;28;20035;-70
2021/12/28 00:59:45;;;;;;;35.83;22.92;;;4.30;99.90;;;;;;5086582;28;20047;-70
2021/12/28 01:02:11;;;;;;;41.55;25.42;;;4.30;99.90;;;;;;5091110;28;20560;-70
2021/12/28 01:04:37;;;;;;;37.70;22.98;;;4.30;99.90;;;;;;5088095;28;20105;-70
2021/12/28 01:07:02;;;;;;;39.95;23.45;;;4.30;99.90;;;;;;5092774;28;20497;-70
2021/12/28 01:09:31;;;;;;;40.75;24.58;;;4.30;99.90;;;;;;5088115;28;20122;-69
2021/12/28 01:12:02;;;;;;;45.67;26.08;;;4.30;99.90;;;;;;5103420;28;20035;-69
2021/12/28 01:14:29;;;;;;;39.03;24.60;;;4.30;99.90;;;;;;5081551;28;20032;-69
2021/12/28 01:16:55;;;;;;;40.50;25.10;;;4.30;99.90;;;;;;5088582;28;20034;-69
2021/12/28 01:19:21;;;;;;;48.97;27.15;;;4.40;99.90;;;;;;5085458;28;20040;-69
2021/12/28 01:21:47;;;;;;;52.45;27.52;;;4.40;99.90;;;;;;5085576;28;20522;-69
2021/12/28 01:24:13;;;;;;;47.58;27.67;;;4.40;99.90;;;;;;5110770;28;20047;-69
2021/12/28 01:26:39;;;;;;;50.40;27.15;;;4.40;99.90;;;;;;5105101;28;20040;-69
2021/12/28 01:29:04;;;;;;;58.38;29.95;;;4.50;99.90;;;;;;5078439;28;20044;-69
2021/12/28 01:31:30;;;;;;;67.28;32.25;;;4.50;99.90;;;;;;5102870;28;20048;-69
2021/12/28 01:33:57;;;;;;;57.65;30.17;;;4.50;99.90;;;;;;5069253;28;20046;-69
2021/12/28 01:36:23;;;;;;;68.18;35.05;;;4.60;99.90;;;;;;5090128;28;20459;-69
2021/12/28 01:38:48;;;;;;;71.57;34.80;;;4.60;99.90;;;;;;5072779;28;20043;-69
2021/12/28 01:41:14;;;;;;;88.15;39.13;;;4.70;99.90;;;;;;5085724;28;20102;-69
2021/12/28 01:43:42;;;;;;;88.70;38.47;;;4.70;99.90;;;;;;5089348;28;20645;-69
2021/12/28 01:46:09;;;;;;;79.00;39.33;;;4.70;99.90;;;;;;5110421;28;20114;-69
2021/12/28 01:48:39;;;;;;;90.05;41.17;;;4.70;99.90;;;;;;5105823;28;20039;-69
2021/12/28 01:51:12;;;;;;;87.38;39.75;;;4.80;99.90;;;;;;5091496;28;20027;-69
2021/12/28 01:53:39;;;;;;;97.25;39.88;;;4.90;99.90;;;;;;5085442;28;20068;-69
2021/12/28 01:56:17;;;;;;;90.00;40.30;;;4.80;99.90;;;;;;5090736;28;20592;-69
2021/12/28 01:58:44;;;;;;;119.28;45.00;;;4.90;99.90;;;;;;5089232;28;20036;-69
2021/12/28 02:01:11;;;;;;;116.18;46.28;;;5.10;99.90;;;;;;5083772;28;20043;-69
2021/12/28 02:03:38;;;;;;;116.07;45.20;;;5.00;99.90;;;;;;5103059;28;20043;-69
2021/12/28 02:06:05;;;;;;;134.80;48.72;;;5.00;99.90;;;;;;5089274;28;20399;-69
2021/12/28 02:08:31;;;;;;;143.35;49.33;;;5.20;99.90;;;;;;5084518;28;20134;-69
2021/12/28 02:10:58;;;;;;;151.02;50.88;;;5.10;99.90;;;;;;5081225;28;20116;-69
2021/12/28 02:13:25;;;;;;;161.50;51.58;;;5.10;99.90;;;;;;5088812;28;20044;-69
2021/12/28 02:15:52;;;;;;;351.02;67.93;;;5.00;99.90;;;;;;5104890;28;20043;-69
2021/12/28 02:18:19;;;;;;;158.48;49.97;;;5.00;99.90;;;;;;5081613;28;20044;-70
2021/12/28 02:20:46;;;;;;;135.15;46.90;;;5.00;99.90;;;;;;5086197;28;20071;-70
2021/12/28 02:23:12;;;;;;;274.83;62.00;;;5.00;99.90;;;;;;5088398;28;20100;-70
2021/12/28 02:25:39;;;;;;;291.45;62.85;;;5.00;99.90;;;;;;5072944;28;20398;-70
2021/12/28 02:28:08;;;;;;;252.00;57.00;;;4.90;99.90;;;;;;5087685;28;20048;-70
2021/12/28 02:30:36;;;;;;;152.63;50.13;;;4.90;99.90;;;;;;5085014;28;20027;-70
2021/12/28 02:33:03;;;;;;;246.05;58.75;;;4.90;99.90;;;;;;5088143;28;20036;-70
2021/12/28 02:35:29;;;;;;;183.85;51.35;;;4.90;99.90;;;;;;5086165;28;20027;-70
2021/12/28 02:37:55;;;;;;;278.70;65.55;;;4.90;99.90;;;;;;5074305;28;20540;-70
2021/12/28 02:40:26;;;;;;;185.45;54.38;;;4.90;99.90;;;;;;5085632;28;20039;-70
2021/12/28 02:42:53;;;;;;;225.98;59.92;;;4.90;99.90;;;;;;5104003;28;20421;-70
2021/12/28 02:45:30;;;;;;;261.85;63.13;;;4.90;99.90;;;;;;5063458;28;20114;-70
2021/12/28 02:47:57;;;;;;;323.67;71.15;;;4.90;99.90;;;;;;5084398;28;20057;-70
2021/12/28 02:50:24;;;;;;;340.75;72.53;;;4.90;99.90;;;;;;5082414;28;20043;-70
2021/12/28 02:52:51;;;;;;;353.48;72.22;;;5.40;99.90;;;;;;5069141;28;20044;-69
2021/12/28 02:55:20;;;;;;;492.02;87.97;;;5.00;99.90;;;;;;5088030;28;20104;-69
2021/12/28 02:57:54;;;;;;;267.42;64.68;;;5.00;99.90;;;;;;5068694;28;20068;-69
2021/12/28 03:00:43;;;;;;;304.38;71.97;;;5.10;99.90;;;;;;5081270;28;20046;-69
2021/12/28 03:03:12;;;;;;;264.65;66.28;;;5.10;99.90;;;;;;5087408;28;20486;-69
2021/12/28 03:05:40;;;;;;;222.15;61.50;;;5.20;99.90;;;;;;5081977;28;20036;-69
2021/12/28 03:08:07;;;;;;;213.30;61.00;;;5.20;99.90;;;;;;5085858;28;20126;-69
2021/12/28 03:10:34;;;;;;;179.15;56.67;;;5.30;99.90;;;;;;5084247;28;20039;-69
2021/12/28 03:13:00;;;;;;;178.27;57.35;;;5.40;99.90;;;;;;5063048;28;20059;-69
2021/12/28 03:15:26;;;;;;;152.93;51.28;;;5.40;99.90;;;;;;5086234;28;20039;-69
2021/12/28 03:17:52;;;;;;;154.60;55.08;;;5.50;99.90;;;;;;5072838;28;20036;-69
2021/12/28 03:20:18;;;;;;;168.15;54.42;;;5.60;99.90;;;;;;5087785;28;20039;-69
2021/12/28 03:22:44;;;;;;;119.25;44.92;;;5.60;99.90;;;;;;5083047;28;20040;-69
2021/12/28 03:25:10;;;;;;;171.60;56.15;;;5.70;99.90;;;;;;5089103;28;20065;-69
2021/12/28 03:27:37;;;;;;;218.70;63.47;;;5.70;99.90;;;;;;5105957;28;20391;-69
2021/12/28 03:30:05;;;;;;;207.50;61.00;;;5.70;99.90;;;;;;5067180;28;20071;-69
2021/12/28 03:32:31;;;;;;;182.18;56.80;;;5.70;99.90;;;;;;5105571;28;20048;-69
2021/12/28 03:34:57;;;;;;;167.98;57.42;;;6.20;99.90;;;;;;5084616;28;20047;-69
2021/12/28 03:37:23;;;;;;;131.15;51.95;;;5.80;99.90;;;;;;5089097;28;20039;-69
2021/12/28 03:39:48;;;;;;;129.20;50.92;;;5.80;99.90;;;;;;5078620;28;20165;-69
2021/12/28 03:42:14;;;;;;;156.13;56.20;;;6.00;99.90;;;;;;5096653;28;20044;-69
2021/12/28 03:44:40;;;;;;;124.28;47.17;;;5.90;99.90;;;;;;5068948;28;20443;-70
2021/12/28 03:47:06;;;;;;;160.10;55.65;;;5.90;99.90;;;;;;5069443;28;20111;-70
2021/12/28 03:49:33;;;;;;;138.27;51.25;;;6.00;99.90;;;;;;5086431;28;20415;-69
2021/12/28 03:51:59;;;;;;;143.70;54.35;;;5.90;99.90;;;;;;5080489;28;20040;-69
2021/12/28 03:54:25;;;;;;;154.65;54.72;;;5.90;99.90;;;;;;5068997;28;20118;-69
2021/12/28 03:56:51;;;;;;;149.90;52.50;;;5.90;99.90;;;;;;5096419;28;20111;-69
2021/12/28 03:59:17;;;;;;;180.00;56.63;;;5.90;99.90;;;;;;5099767;28;20056;-69
2021/12/28 04:01:43;;;;;;;152.00;54.70;;;5.90;99.90;;;;;;5090014;28;20092;-69
2021/12/28 04:04:09;;;;;;;141.00;50.78;;;5.90;99.90;;;;;;5081974;28;20044;-69
2021/12/28 04:06:35;;;;;;;177.23;58.15;;;5.90;99.90;;;;;;5093321;28;20050;-69
2021/12/28 04:09:03;;;;;;;164.30;53.80;;;5.90;99.90;;;;;;5089994;28;20134;-69
2021/12/28 04:11:29;;;;;;;139.52;49.42;;;5.80;99.90;;;;;;5088210;28;20055;-69
2021/12/28 04:14:05;;;;;;;252.30;66.32;;;5.80;99.90;;;;;;5091873;28;20036;-69
2021/12/28 04:16:32;;;;;;;297.75;71.95;;;5.90;99.90;;;;;;5076184;28;20335;-69
2021/12/28 04:18:59;;;;;;;217.45;60.53;;;6.50;99.90;;;;;;5092471;28;20131;-69
2021/12/28 04:21:25;;;;;;;313.40;68.88;;;5.90;99.90;;;;;;5090751;28;20051;-69
2021/12/28 04:23:51;;;;;;;379.27;80.50;;;5.80;99.90;;;;;;5083987;28;20110;-69
2021/12/28 04:26:18;;;;;;;431.77;80.47;;;5.80;99.90;;;;;;5072419;28;20035;-69
2021/12/28 04:28:44;;;;;;;577.72;92.57;;;5.70;99.90;;;;;;5091914;28;20591;-69
2021/12/28 04:31:10;;;;;;;254.98;58.70;;;5.60;99.90;;;;;;5086586;28;20043;-69
2021/12/28 04:33:37;;;;;;;524.28;87.38;;;5.50;99.90;;;;;;5092882;28;20047;-69
2021/12/28 04:36:10;;;;;;;287.08;59.30;;;5.50;99.90;;;;;;5073575;28;20030;-69
2021/12/28 04:38:37;;;;;;;443.67;78.28;;;5.40;99.90;;;;;;5097173;28;20083;-69
2021/12/28 04:41:04;;;;;;;603.08;91.30;;;5.40;99.90;;;;;;5081421;28;20040;-69
2021/12/28 04:43:30;;;;;;;440.05;75.05;;;5.30;99.90;;;;;;5083304;28;20044;-69
2021/12/28 04:45:56;;;;;;;430.95;76.07;;;5.30;99.90;;;;;;5068396;28;20048;-69
2021/12/28 04:48:22;;;;;;;342.20;67.10;;;5.20;99.90;;;;;;5063853;28;20094;-69
2021/12/28 04:50:47;;;;;;;348.95;66.40;;;5.20;99.90;;;;;;5094271;28;20066;-69
2021/12/28 04:53:13;;;;;;;415.65;77.35;;;5.20;99.90;;;;;;5075486;28;20097;-69
2021/12/28 04:55:45;;;;;;;391.95;75.72;;;5.20;99.90;;;;;;5087456;28;20031;-69
2021/12/28 04:58:11;;;;;;;280.35;60.72;;;5.20;99.90;;;;;;5104065;28;20065;-69
2021/12/28 05:00:39;;;;;;;310.08;64.50;;;5.80;99.90;;;;;;5069620;28;20043;-69
2021/12/28 05:03:05;;;;;;;216.10;56.22;;;5.10;99.90;;;;;;5111623;28;20071;-69
2021/12/28 05:05:31;;;;;;;234.90;58.65;;;5.80;99.90;;;;;;5106748;28;20071;-69
2021/12/28 05:07:57;;;;;;;231.82;53.20;;;5.10;99.90;;;;;;5080695;28;20394;-69
2021/12/28 05:10:22;;;;;;;162.27;46.38;;;5.00;99.90;;;;;;5088377;28;20037;-69
2021/12/28 05:12:50;;;;;;;202.15;51.50;;;5.00;99.90;;;;;;5083353;28;20071;-69
2021/12/28 05:15:16;;;;;;;198.57;46.50;;;5.00;99.90;;;;;;5074917;28;20036;-69
2021/12/28 05:17:42;;;;;;;162.98;46.80;;;5.00;99.90;;;;;;5087540;28;20039;-69
2021/12/28 05:20:08;;;;;;;212.23;51.78;;;5.00;99.90;;;;;;5087239;28;20067;-69
2021/12/28 05:22:34;;;;;;;168.77;48.10;;;5.00;99.90;;;;;;5103194;28;20482;-69
2021/12/28 05:24:59;;;;;;;173.43;50.20;;;5.10;99.90;;;;;;5090605;28;20067;-69
2021/12/28 05:27:25;;;;;;;141.75;42.05;;;4.90;99.90;;;;;;5069362;28;20027;-69
2021/12/28 05:29:51;;;;;;;146.45;43.80;;;5.30;99.90;;;;;;5103573;28;20206;-69
2021/12/28 05:32:17;;;;;;;130.63;43.10;;;4.90;99.90;;;;;;5084257;28;20454;-69
2021/12/28 05:34:43;;;;;;;179.60;49.58;;;4.90;99.90;;;;;;5088629;28;20066;-69
2021/12/28 05:37:09;;;;;;;171.52;45.97;;;4.90;99.90;;;;;;5082546;28;20488;-69
2021/12/28 05:39:35;;;;;;;148.68;43.45;;;4.90;99.90;;;;;;5082984;28;20123;-69
2021/12/28 05:42:02;;;;;;;168.30;45.47;;;5.00;99.90;;;;;;5103084;28;20407;-69
2021/12/28 05:44:28;;;;;;;164.05;43.85;;;4.90;99.90;;;;;;5071139;28;20137;-69
2021/12/28 05:46:55;;;;;;;140.10;40.95;;;4.90;99.90;;;;;;5076616;28;20071;-69
2021/12/28 05:49:22;;;;;;;130.02;41.30;;;5.70;99.90;;;;;;5105111;27;20048;-69
2021/12/28 05:51:48;;;;;;;155.55;41.75;;;4.90;99.90;;;;;;5083529;28;20097;-69
2021/12/28 05:54:14;;;;;;;136.52;43.08;;;4.90;99.90;;;;;;5085986;28;20491;-69
2021/12/28 05:56:41;;;;;;;164.95;46.20;;;5.10;99.90;;;;;;5088338;28;20716;-69
2021/12/28 05:59:07;;;;;;;135.98;43.85;;;4.90;99.90;;;;;;5073444;28;20156;-69
2021/12/28 06:01:33;;;;;;;152.32;43.58;;;4.90;99.90;;;;;;5089373;28;20033;-69
2021/12/28 06:03:59;;;;;;;139.70;42.47;;;4.80;99.90;;;;;;5085979;28;20394;-69
2021/12/28 06:06:25;;;;;;;151.77;45.67;;;4.80;99.90;;;;;;5071164;28;20076;-69
2021/12/28 06:08:52;;;;;;;122.25;40.20;;;4.90;99.90;;;;;;5088986;28;20830;-69
2021/12/28 06:11:19;;;;;;;127.50;40.47;;;4.80;99.90;;;;;;5087396;28;20036;-69
2021/12/28 06:13:44;;;;;;;136.35;44.10;;;4.90;99.90;;;;;;5083490;28;20497;-69
2021/12/28 06:16:11;;;;;;;136.80;41.97;;;4.90;99.90;;;;;;5085893;28;20063;-69
2021/12/28 06:18:36;;;;;;;114.35;38.58;;;4.90;99.90;;;;;;5084363;28;20174;-69
2021/12/28 06:21:02;;;;;;;125.75;37.45;;;4.90;99.90;;;;;;5084376;28;20039;-69
2021/12/28 06:23:28;;;;;;;129.13;41.80;;;4.90;99.90;;;;;;5085920;28;20055;-69
2021/12/28 06:25:54;;;;;;;139.27;41.35;;;4.90;99.90;;;;;;5086493;28;20058;-69
2021/12/28 06:28:20;;;;;;;234.07;55.17;;;5.00;99.90;;;;;;5088288;28;20044;-69
2021/12/28 06:30:46;;;;;;;190.32;47.65;;;5.20;99.90;;;;;;5085589;28;20039;-69
2021/12/28 06:33:12;;;;;;;209.75;48.40;;;4.90;99.90;;;;;;5084534;28;20047;-69
2021/12/28 06:35:38;;;;;;;154.75;42.67;;;4.90;99.90;;;;;;5085542;28;20042;-69
2021/12/28 06:38:04;;;;;;;132.65;39.08;;;4.90;99.90;;;;;;5085439;28;20053;-69
2021/12/28 06:40:30;;;;;;;145.23;43.13;;;5.10;99.90;;;;;;5086981;28;20283;-69
2021/12/28 06:42:56;;;;;;;171.95;45.10;;;5.00;99.90;;;;;;5068435;28;20039;-69
2021/12/28 06:45:21;;;;;;;128.68;39.78;;;4.90;99.90;;;;;;5085163;28;20043;-69
2021/12/28 06:47:47;;;;;;;115.88;40.03;;;5.10;99.90;;;;;;5070072;28;20042;-69
2021/12/28 06:50:13;;;;;;;112.80;37.55;;;5.00;99.90;;;;;;5086042;28;20075;-69
2021/12/28 06:52:39;;;;;;;119.70;39.65;;;5.00;99.90;;;;;;5083895;28;20188;-69
2021/12/28 06:55:07;;;;;;;122.03;41.08;;;5.00;99.90;;;;;;5101828;28;20035;-68
2021/12/28 06:57:33;;;;;;;94.85;36.30;;;5.00;99.90;;;;;;5070283;28;20147;-68
2021/12/28 06:59:59;;;;;;;106.97;37.72;;;5.00;99.90;;;;;;5086328;28;20063;-68
2021/12/28 07:02:25;;;;;;;112.10;38.97;;;5.00;99.90;;;;;;5085943;28;20112;-68
2021/12/28 07:04:52;;;;;;;91.20;35.88;;;5.00;99.90;;;;;;5105134;28;20038;-68
2021/12/28 07:07:18;;;;;;;107.93;37.92;;;5.00;99.90;;;;;;5080785;28;20055;-68
2021/12/28 07:09:44;;;;;;;92.63;36.55;;;5.00;99.90;;;;;;5069749;28;20039;-69
2021/12/28 07:12:11;;;;;;;96.35;35.95;;;5.00;99.90;;;;;;5087562;28;20114;-69
2021/12/28 07:14:37;;;;;;;81.10;35.55;;;5.00;99.90;;;;;;5088596;28;20476;-69
2021/12/28 07:17:03;;;;;;;100.10;36.78;;;5.00;99.90;;;;;;5088304;28;20040;-69
2021/12/28 07:19:29;;;;;;;86.60;34.92;;;5.00;99.90;;;;;;5088391;28;20040;-69
2021/12/28 07:21:55;;;;;;;75.20;31.88;;;5.00;99.90;;;;;;5089139;28;20402;-69
2021/12/28 07:24:20;;;;;;;78.07;32.55;;;5.00;99.90;;;;;;5071852;28;20047;-70
2021/12/28 07:26:47;;;;;;;65.57;30.00;;;5.20;99.90;;;;;;5067196;28;20039;-70
2021/12/28 07:29:13;;;;;;;65.93;28.75;;;5.00;99.90;;;;;;5087265;28;20361;-70
2021/12/28 07:31:39;;;;;;;67.03;27.98;;;5.00;99.90;;;;;;5103513;28;20058;-70
2021/12/28 07:34:05;;;;;;;65.82;28.95;;;5.00;99.90;;;;;;5082911;28;20134;-69
2021/12/28 07:36:31;;;;;;;61.50;27.40;;;5.00;99.90;;;;;;5068140;28;20154;-69
2021/12/28 07:38:57;;;;;;;58.22;25.65;;;5.00;99.90;;;;;;5086398;28;20050;-69
2021/12/28 07:41:22;;;;;;;53.25;24.75;;;5.00;99.90;;;;;;5064492;28;20051;-70
2021/12/28 07:43:48;;;;;;;60.88;26.38;;;5.00;99.90;;;;;;5080062;28;20039;-69
2021/12/28 07:46:14;;;;;;;49.40;23.25;;;4.90;99.90;;;;;;5080492;28;20444;-69
2021/12/28 07:48:41;;;;;;;50.22;22.13;;;5.40;99.90;;;;;;5084143;28;20032;-69
2021/12/28 07:51:07;;;;;;;46.08;20.92;;;5.00;99.90;;;;;;5089283;28;20028;-69
2021/12/28 07:53:34;;;;;;;40.35;21.38;;;5.00;99.90;;;;;;5071933;28;20044;-70
2021/12/28 07:56:02;;;;;;;48.72;22.35;;;5.10;99.90;;;;;;5103131;28;20032;-69
2021/12/28 07:58:28;;;;;;;38.80;19.95;;;5.00;99.90;;;;;;5086626;28;20122;-69
2021/12/28 08:00:55;;;;;;;45.45;21.05;;;4.90;99.90;;;;;;5101040;28;20047;-69
2021/12/28 08:03:22;;;;;;;36.70;19.50;;;5.00;99.90;;;;;;5082812;28;20043;-69
2021/12/28 08:05:49;;;;;;;41.55;21.02;;;5.00;99.90;;;;;;5083622;28;20123;-69
2021/12/28 08:08:15;;;;;;;41.35;19.08;;;4.90;99.90;;;;;;5082816;28;20131;-69
2021/12/28 08:10:41;;;;;;;40.40;18.80;;;4.90;99.90;;;;;;5103877;28;20466;-69
2021/12/28 08:13:07;;;;;;;42.10;19.08;;;4.90;99.90;;;;;;5102347;28;20512;-70
2021/12/28 08:15:33;;;;;;;39.00;19.25;;;5.40;99.90;;;;;;5083595;28;20032;-69
2021/12/28 08:17:59;;;;;;;42.45;20.00;;;4.90;99.90;;;;;;5095570;28;20024;-69
2021/12/28 08:20:25;;;;;;;35.28;19.20;;;5.00;99.90;;;;;;5064344;28;20135;-69
2021/12/28 08:22:51;;;;;;;45.67;19.27;;;5.00;99.90;;;;;;5079119;28;20122;-69
2021/12/28 08:25:19;;;;;;;38.42;18.48;;;5.10;99.90;;;;;;5088091;28;20071;-69
2021/12/28 08:27:45;;;;;;;35.63;16.60;;;5.20;99.90;;;;;;5100094;28;20040;-68
2021/12/28 08:30:13;;;;;;;34.67;17.33;;;5.10;99.90;;;;;;5080021;28;20089;-68
2021/12/28 08:32:40;;;;;;;39.08;18.23;;;5.20;99.90;;;;;;5083730;28;20158;-68
2021/12/28 08:35:07;;;;;;;35.22;16.77;;;5.90;99.90;;;;;;5105402;28;20039;-69
2021/12/28 08:37:32;;;;;;;37.22;16.85;;;5.10;99.90;;;;;;5086242;28;20100;-69
2021/12/28 08:39:59;;;;;;;34.53;14.80;;;5.20;99.90;;;;;;5087459;28;20051;-69
2021/12/28 08:42:25;;;;;;;38.03;15.27;;;5.20;99.90;;;;;;5085333;28;20066;-68
2021/12/28 08:44:51;;;;;;;36.13;16.35;;;5.20;99.90;;;;;;5083788;28;20043;-69
2021/12/28 08:47:18;;;;;;;38.33;15.30;;;5.20;99.90;;;;;;5086728;28;20040;-69
2021/12/28 08:49:43;;;;;;;35.25;15.52;;;5.20;99.90;;;;;;5090047;28;20483;-68
2021/12/28 08:52:09;;;;;;;33.08;14.75;;;5.90;99.90;;;;;;5111372;28;20080;-69
2021/12/28 08:54:35;;;;;;;33.35;13.75;;;5.50;99.90;;;;;;5107118;28;20130;-68
2021/12/28 08:57:02;;;;;;;35.35;15.38;;;5.10;99.90;;;;;;5106524;28;20042;-69
2021/12/28 08:59:28;;;;;;;29.38;14.18;;;5.10;99.90;;;;;;5068776;28;20083;-68
2021/12/28 09:01:56;;;;;;;29.13;14.50;;;5.30;99.90;;;;;;5106297;28;20139;-68
2021/12/28 09:04:22;;;;;;;33.53;14.10;;;5.10;99.90;;;;;;5073703;28;20119;-68
2021/12/28 09:06:48;;;;;;;31.73;13.95;;;5.20;99.90;;;;;;5068119;28;20130;-68
2021/12/28 09:09:15;;;;;;;35.75;14.18;;;5.20;99.90;;;;;;5087329;28;20220;-68
2021/12/28 09:11:43;;;;;;;30.40;13.23;;;5.30;99.90;;;;;;5104604;28;20127;-68
2021/12/28 09:14:09;;;;;;;26.08;12.55;;;5.30;99.90;;;;;;5106083;28;20399;-69
2021/12/28 09:16:35;;;;;;;29.50;12.90;;;5.40;99.90;;;;;;5090110;28;20123;-68
2021/12/28 09:19:01;;;;;;;28.85;14.13;;;5.50;99.90;;;;;;5088195;28;20051;-68
2021/12/28 09:21:27;;;;;;;29.92;12.63;;;5.50;99.90;;;;;;5090088;28;20047;-69
2021/12/28 09:23:53;;;;;;;33.75;12.98;;;5.60;99.90;;;;;;5088140;28;20052;-68
2021/12/28 09:26:18;;;;;;;28.45;13.02;;;5.60;99.90;;;;;;5087013;28;20411;-68
2021/12/28 09:28:44;;;;;;;24.92;12.25;;;5.60;99.90;;;;;;5090073;28;20055;-68
2021/12/28 09:31:10;;;;;;;28.92;11.77;;;5.70;99.90;;;;;;5108104;28;20395;-68
2021/12/28 09:33:36;;;;;;;32.30;11.60;;;5.70;99.90;;;;;;5087640;28;20162;-68
2021/12/28 09:36:03;;;;;;;28.55;11.18;;;5.80;99.90;;;;;;5108034;28;20445;-68
2021/12/28 09:38:28;;;;;;;28.70;10.93;;;5.80;99.90;;;;;;5108819;28;20097;-69
2021/12/28 09:40:54;;;;;;;29.20;11.88;;;5.90;99.90;;;;;;5106043;27;20411;-69
2021/12/28 09:43:20;;;;;;;26.00;11.07;;;5.90;99.90;;;;;;5109610;28;20042;-69
2021/12/28 09:45:46;;;;;;;30.15;11.85;;;6.00;99.90;;;;;;5107856;28;20035;-69
2021/12/28 09:48:12;;;;;;;24.15;11.40;;;6.00;99.90;;;;;;5100888;28;20047;-69
2021/12/28 09:50:40;;;;;;;24.40;10.75;;;6.10;99.90;;;;;;5066428;28;20510;-69
2021/12/28 09:53:10;;;;;;;25.55;10.63;;;6.30;99.90;;;;;;5091396;28;20139;-69
2021/12/28 09:55:36;;;;;;;25.60;10.87;;;6.20;99.90;;;;;;5072067;28;20430;-70
2021/12/28 09:58:02;;;;;;;27.65;10.00;;;6.20;99.90;;;;;;5088686;28;20187;-69
2021/12/28 10:00:28;;;;;;;25.17;10.30;;;6.30;99.90;;;;;;5088034;28;20406;-69
2021/12/28 10:02:55;;;;;;;19.85;9.07;;;6.30;99.90;;;;;;5109728;28;20040;-69
2021/12/28 10:05:24;;;;;;;22.52;9.52;;;6.30;99.90;;;;;;5107802;28;20076;-69
2021/12/28 10:07:59;;;;;;;25.70;10.02;;;6.30;99.90;;;;;;5085837;28;20028;-69
2021/12/28 10:10:33;;;;;;;21.48;8.57;;;6.30;99.90;;;;;;5086786;28;20078;-69
2021/12/28 10:13:01;;;;;;;21.65;8.38;;;6.30;99.90;;;;;;5091395;28;20119;-69
2021/12/28 10:15:31;;;;;;;17.67;8.07;;;6.40;99.90;;;;;;5104387;28;20395;-69
2021/12/28 10:18:00;;;;;;;22.95;7.15;;;6.40;99.90;;;;;;5088163;28;20438;-69
2021/12/28 10:20:32;;;;;;;23.08;7.93;;;6.40;99.90;;;;;;5089534;28;20081;-69
2021/12/28 10:23:04;;;;;;;22.15;8.85;;;6.40;99.90;;;;;;5091226;28;20036;-70
2021/12/28 10:25:31;;;;;;;21.63;8.80;;;6.40;99.90;;;;;;5088168;28;20039;-69
2021/12/28 10:27:58;;;;;;;26.48;8.60;;;6.40;99.90;;;;;;5086648;28;20075;-69
2021/12/28 10:30:28;;;;;;;25.45;8.82;;;6.50;99.90;;;;;;5088522;28;20037;-69
2021/12/28 10:32:58;;;;;;;28.10;8.38;;;6.50;99.90;;;;;;5084525;28;20053;-69
2021/12/28 10:35:35;;;;;;;23.10;8.45;;;6.50;99.90;;;;;;5082829;28;20377;-69
2021/12/28 10:38:05;;;;;;;22.35;8.38;;;6.50;99.90;;;;;;5081889;28;20040;-69
2021/12/28 10:40:35;;;;;;;21.85;9.23;;;6.60;99.90;;;;;;5086660;28;20039;-69
2021/12/28 10:43:09;;;;;;;23.48;7.63;;;6.60;99.90;;;;;;5086048;28;20040;-69
2021/12/28 10:46:08;;;;;;;15.23;7.15;;;6.70;99.90;;;;;;5085010;28;20078;-69
2021/12/28 10:48:39;;;;;;;19.60;8.80;;;6.70;99.90;;;;;;5062968;28;20045;-69
2021/12/28 10:51:09;;;;;;;24.08;7.30;;;6.70;99.90;;;;;;5086977;28;20039;-69
2021/12/28 10:54:07;;;;;;;28.85;7.88;;;6.70;99.90;;;;;;5086871;28;20032;-69
2021/12/28 10:56:52;;;;;;;23.45;7.97;;;6.70;99.90;;;;;;5085915;28;20036;-69
2021/12/28 10:59:23;;;;;;;29.80;9.27;;;6.70;99.90;;;;;;5083526;28;20049;-69
2021/12/28 11:01:49;;;;;;;24.30;7.82;;;6.70;99.90;;;;;;5087817;28;20483;-69
2021/12/28 11:04:16;;;;;;;24.10;8.35;;;6.60;99.90;;;;;;5086872;28;20097;-69
2021/12/28 11:06:48;;;;;;;25.30;8.95;;;6.70;99.90;;;;;;5084542;28;20055;-69
2021/12/28 11:09:22;;;;;;;23.40;9.40;;;6.70;99.90;;;;;;5083381;28;20051;-69
2021/12/28 11:11:50;;;;;;;28.27;10.23;;;6.70;99.90;;;;;;5086534;28;20169;-69
2021/12/28 11:14:19;;;;;;;18.35;7.97;;;6.70;99.90;;;;;;5083257;28;20043;-69
2021/12/28 11:16:57;;;;;;;24.73;9.27;;;6.70;99.90;;;;;;5087019;28;20058;-69
2021/12/28 11:19:29;;;;;;;23.75;9.40;;;6.70;99.90;;;;;;5082734;28;20093;-69
2021/12/28 11:22:00;;;;;;;19.10;8.18;;;6.70;99.90;;;;;;5085294;28;20039;-69
2021/12/28 11:24:35;;;;;;;27.90;10.10;;;6.70;99.90;;;;;;5067992;28;20036;-69
2021/12/28 11:27:03;;;;;;;24.23;10.38;;;7.10;99.90;;;;;;5078331;28;20051;-69
2021/12/28 11:29:30;;;;;;;25.10;9.32;;;6.80;99.90;;;;;;5085723;28;20465;-69
2021/12/28 11:32:01;;;;;;;27.40;11.32;;;6.80;99.90;;;;;;5086479;28;20051;-69
2021/12/28 11:34:35;;;;;;;21.05;8.88;;;6.80;99.90;;;;;;5085509;28;20423;-69
2021/12/28 11:37:08;;;;;;;21.77;9.05;;;6.80;99.90;;;;;;5084138;28;20032;-69
2021/12/28 11:39:51;;;;;;;23.38;9.00;;;6.80;99.90;;;;;;5087680;28;20124;-69
2021/12/28 11:42:18;;;;;;;27.25;10.90;;;6.90;99.90;;;;;;5084460;28;20040;-69
2021/12/28 11:44:44;;;;;;;22.77;11.13;;;6.90;99.90;;;;;;5085466;28;20387;-70
2021/12/28 11:47:13;;;;;;;23.05;11.10;;;6.90;99.90;;;;;;5087433;28;20028;-69
2021/12/28 11:49:40;;;;;;;28.25;10.75;;;7.70;99.90;;;;;;5054601;28;20051;-69
2021/12/28 11:52:10;;;;;;;25.60;10.27;;;7.30;99.90;;;;;;5082701;28;20043;-69
2021/12/28 11:54:44;;;;;;;21.63;9.82;;;7.30;99.90;;;;;;5083632;28;20028;-70
2021/12/28 11:57:16;;;;;;;26.45;9.88;;;7.30;99.90;;;;;;5082151;28;20375;-69
2021/12/28 11:59:49;;;;;;;21.83;10.40;;;7.00;99.90;;;;;;5083994;28;20419;-69
2021/12/28 12:02:15;;;;;;;24.80;10.43;;;7.00;99.90;;;;;;5085562;28;20055;-70
2021/12/28 12:04:48;;;;;;;22.55;10.20;;;7.00;99.90;;;;;;5084632;28;20040;-69
2021/12/28 12:07:14;;;;;;;19.65;10.07;;;7.00;99.90;;;;;;5082905;28;20048;-69
2021/12/28 12:09:49;;;;;;;23.73;10.45;;;7.00;99.90;;;;;;5078317;28;20296;-69
2021/12/28 12:12:45;;;;;;;30.10;11.25;;;7.00;99.90;;;;;;5084211;28;20434;-69
2021/12/28 12:15:14;;;;;;;28.42;10.52;;;7.00;99.90;;;;;;5078247;28;20053;-69
2021/12/28 12:17:44;;;;;;;21.80;11.02;;;7.10;99.90;;;;;;5082354;28;20072;-70
2021/12/28 12:20:30;;;;;;;21.98;10.52;;;7.10;99.90;;;;;;5085696;28;20058;-69
2021/12/28 12:22:55;;;;;;;25.98;11.93;;;7.10;99.90;;;;;;5076725;28;20048;-69
2021/12/28 12:25:53;;;;;;;26.05;11.60;;;7.10;99.90;;;;;;5096687;28;20040;-69
2021/12/28 12:28:48;;;;;;;20.85;11.55;;;7.30;99.90;;;;;;5091989;28;20048;-69
2021/12/28 12:31:30;;;;;;;18.65;10.35;;;7.10;99.90;;;;;;5069024;28;20155;-69
2021/12/28 12:33:56;;;;;;;20.75;11.35;;;7.20;99.90;;;;;;5081328;28;20098;-69
2021/12/28 12:36:28;;;;;;;29.67;12.98;;;7.20;99.90;;;;;;5087155;28;20044;-69
2021/12/28 12:38:54;;;;;;;27.48;13.15;;;7.30;99.90;;;;;;5089431;28;20039;-69